Saturday, January 20, 2018, 8:22 AM EST
Back to Local

KFOK, The Gabreski Airport

Location: East Quogue, NY, United States Lat: 40.85
Local Time: 8:22 AM EST (13:22 GMT) Lon: -72.617
Time Zone: US/Eastern Elev: 65 ft

Show me the last for .
Show Decoded

2018-01-20 07:53 METAR KFOK 201253Z 24015G21KT 10SM CLR 04/M04 A2987 RMK AO2 SLP114 T00441039 =
2018-01-20 06:53 METAR KFOK 201153Z 23010KT 10SM CLR 02/M04 A2986 RMK AO2 SLP111 I6000 T00221039
                 10028 21072 58013 =
2018-01-20 05:53 METAR KFOK 201053Z AUTO 23008KT 10SM CLR 02/M04 A2988 RMK AO2 SLP118 T00171044 =
2018-01-20 04:53 METAR KFOK 200953Z AUTO 23006KT 10SM CLR 01/M05 A2990 RMK AO2 SLP124 T00111050 =
2018-01-20 03:53 METAR KFOK 200853Z AUTO 24009KT 10SM CLR 02/M04 A2990 RMK AO2 SLP124 I3000
                 T00171044 57016 =
2018-01-20 01:53 METAR KFOK 200653Z AUTO 24009KT 10SM CLR 01/M03 A2993 RMK AO2 SLP135 I1000
                 T00111028 =
2018-01-20 00:53 METAR KFOK 200553Z AUTO 20003KT 9SM CLR M07/M09 A2994 RMK AO2 SLP140 T10721094
                 11044 21083 56019 =
2018-01-19 23:53 METAR KFOK 200453Z AUTO 19003KT 10SM CLR M08/M11 A2996 RMK AO2 SLP145 T10831106
                 400281106 =
2018-01-19 22:53 METAR KFOK 200353Z 00000KT 10SM CLR M08/M11 A2998 RMK AO2 SLP152 T10781106 =
2018-01-19 21:53 METAR KFOK 200253Z 00000KT 10SM CLR M07/M11 A3000 RMK AO2 SLP159 T10721106 58002
                 =
2018-01-19 20:53 METAR KFOK 200153Z 00000KT 10SM CLR M07/M11 A3001 RMK AO2 SLP163 T10721106 =
2018-01-19 19:53 METAR KFOK 200053Z 00000KT 10SM CLR M06/M10 A3001 RMK AO2 SLP164 T10611100 =
2018-01-19 18:53 METAR KFOK 192353Z 00000KT 10SM CLR M04/M09 A3000 RMK AO2 SLP160 T10441094 10028
                 21050 50002 =
2018-01-19 17:53 METAR KFOK 192253Z 00000KT 10SM CLR M04/M09 A3001 RMK AO2 SLP162 T10391094 =
2018-01-19 16:53 METAR KFOK 192153Z 25004KT 10SM CLR M01/M08 A3001 RMK AO2 SLP161 T10111078 =
2018-01-19 15:53 METAR KFOK 192053Z 27008KT 10SM CLR 02/M09 A3000 RMK AO2 SLP158 T00171094 53001
                 =
2018-01-19 14:53 METAR KFOK 191953Z 28008KT 240V300 10SM CLR 03/M09 A2998 RMK AO2 SLP153
                 T00281094 =
2018-01-19 13:53 METAR KFOK 191853Z 27009KT 10SM CLR 02/M10 A2998 RMK AO2 SLP152 T00221100 =
2018-01-19 12:53 METAR KFOK 191753Z 27010KT 10SM CLR 02/M10 A2999 RMK AO2 SLP157 T00171100 10022
                 21100 58028 =
2018-01-19 11:53 METAR KFOK 191653Z 28008KT 10SM CLR 01/M09 A3003 RMK AO2 SLP169 T00111094 =
2018-01-19 10:53 METAR KFOK 191553Z 28009KT 10SM CLR 00/M09 A3006 RMK AO2 SLP180 T00001094 =
2018-01-19 09:53 METAR KFOK 191453Z 28008KT 10SM CLR M02/M08 A3008 RMK AO2 SLP185 T10171083 51004
                 =
2018-01-19 08:53 METAR KFOK 191353Z 25004KT 10SM CLR M04/M08 A3008 RMK AO2 SLP185 T10441083 =

Support USWX by starting your Amazon purchase here.